Time;durP1;ratioP1;P1;durP2;ratioP2;P2;SDS_P1;SDS_P2;PMS_P1;PMS_P2;Temp;Humidity;BMP_temperature;BMP_pressure;BME280_temperature;BME280_humidity;BME280_pressure;Samples;Min_cycle;Max_cycle;Signal;HPM_P1;HPM_P2
2022/08/10 00:02:20;;;;;;;9.63;7.70;;;;;;;20.25;76.46;99438.88;6172784;23;20091;-89
2022/08/10 00:04:45;;;;;;;12.13;8.32;;;;;;;20.27;75.82;99447.53;6215690;23;20000;-89
2022/08/10 00:07:11;;;;;;;11.50;8.13;;;;;;;20.16;75.22;99430.72;6164152;23;20063;-90
2022/08/10 00:09:36;;;;;;;13.95;8.27;;;;;;;20.24;73.06;99442.75;6139395;23;20027;-88
2022/08/10 00:12:02;;;;;;;13.75;8.50;;;;;;;20.11;73.93;99435.59;6188791;23;20004;-89
2022/08/10 00:14:27;;;;;;;11.60;8.35;;;;;;;20.22;75.54;99453.22;6189159;23;20001;-89
2022/08/10 00:16:52;;;;;;;12.13;8.27;;;;;;;20.16;75.23;99443.59;6215372;23;20005;-89
2022/08/10 00:19:18;;;;;;;9.85;7.47;;;;;;;20.15;76.22;99437.34;6188874;23;20023;-89
2022/08/10 00:21:44;;;;;;;9.00;6.90;;;;;;;20.42;74.77;99456.28;6164019;23;20016;-89
2022/08/10 00:24:10;;;;;;;10.60;7.10;;;;;;;20.44;74.23;99432.16;6188716;23;20509;-89
2022/08/10 00:26:35;;;;;;;8.32;6.57;;;;;;;20.61;72.71;99437.53;6164029;23;19997;-89
2022/08/10 00:29:01;;;;;;;12.80;8.77;;;;;;;20.70;69.67;99424.56;6188641;23;19996;-89
2022/08/10 00:31:26;;;;;;;8.90;7.57;;;;;;;20.68;71.94;99439.72;6215077;23;20004;-89
2022/08/10 00:33:51;;;;;;;14.55;9.60;;;;;;;20.28;71.89;99438.22;6139727;23;20021;-89
2022/08/10 00:36:17;;;;;;;12.02;9.40;;;;;;;20.34;72.40;99455.25;6163609;23;20000;-88
2022/08/10 00:38:42;;;;;;;14.57;7.97;;;;;;;20.24;72.24;99440.00;6188683;23;19996;-89
2022/08/10 00:41:08;;;;;;;8.30;6.57;;;;;;;20.29;71.71;99430.81;6163826;23;20007;-89
2022/08/10 00:43:33;;;;;;;10.57;5.13;;;;;;;20.39;68.97;99439.41;6163693;23;20000;-89
2022/08/10 00:45:59;;;;;;;13.85;8.18;;;;;;;20.33;72.09;99432.53;6163606;23;20020;-89
2022/08/10 00:48:24;;;;;;;8.93;7.82;;;;;;;20.25;72.10;99427.13;6163972;23;20383;-89
2022/08/10 00:50:50;;;;;;;10.30;7.32;;;;;;;20.13;73.53;99434.13;6163887;23;20339;-90
2022/08/10 00:53:15;;;;;;;10.02;7.38;;;;;;;20.14;73.96;99435.72;6163802;23;20361;-89
2022/08/10 00:55:43;;;;;;;19.83;10.73;;;;;;;20.03;73.87;99430.97;6163703;23;20027;-89
2022/08/10 00:58:08;;;;;;;11.25;9.48;;;;;;;19.91;72.79;99428.94;6164343;23;20035;-89
2022/08/10 01:00:34;;;;;;;13.10;9.80;;;;;;;19.79;73.22;99427.69;6164338;23;20000;-89
2022/08/10 01:02:59;;;;;;;13.07;9.60;;;;;;;19.96;72.20;99443.22;6214895;23;20004;-89
2022/08/10 01:05:25;;;;;;;11.13;9.60;;;;;;;19.79;70.79;99418.69;6188380;23;20023;-89
2022/08/10 01:08:09;;;;;;;16.23;9.70;;;;;;;19.87;72.70;99433.47;6164271;23;19997;-89
2022/08/10 01:10:56;;;;;;;14.15;9.73;;;;;;;19.76;72.75;99436.56;6188325;23;20038;-89
2022/08/10 01:13:21;;;;;;;14.02;9.63;;;;;;;19.80;72.72;99433.97;6214717;23;19996;-90
2022/08/10 01:15:56;;;;;;;13.85;9.82;;;;;;;19.76;73.16;99431.09;6214693;23;20078;-89
2022/08/10 01:18:52;;;;;;;15.63;10.07;;;;;;;19.75;74.12;99429.47;6187957;23;20067;-89
2022/08/10 01:21:54;;;;;;;14.95;9.80;;;;;;;19.76;74.12;99419.38;6189062;23;20004;-89
2022/08/10 01:24:43;;;;;;;14.65;10.15;;;;;;;19.69;74.45;99430.75;6141879;23;20071;-89
2022/08/10 01:27:15;;;;;;;14.57;9.90;;;;;;;19.54;74.98;99414.94;6214635;23;20382;-89
2022/08/10 01:29:54;;;;;;;11.98;9.52;;;;;;;19.56;73.90;99442.72;6163273;23;20000;-89
2022/08/10 01:32:36;;;;;;;17.73;10.68;;;;;;;19.39;73.69;99429.91;6192594;23;20039;-90
2022/08/10 01:35:37;;;;;;;16.70;10.02;;;;;;;19.35;75.08;99448.88;6194326;23;20007;-89
2022/08/10 01:38:13;;;;;;;15.00;11.18;;;;;;;19.33;75.49;99436.69;6245035;23;20008;-90
2022/08/10 01:40:43;;;;;;;15.00;10.07;;;;;;;19.37;73.52;99434.91;6194826;23;20458;-89
2022/08/10 01:43:09;;;;;;;16.98;10.77;;;;;;;19.28;75.36;99440.41;6193979;23;19996;-89
2022/08/10 01:45:43;;;;;;;17.77;11.40;;;;;;;19.36;74.64;99446.94;6193633;23;20003;-90
2022/08/10 01:48:30;;;;;;;17.83;10.48;;;;;;;19.34;74.71;99444.56;6169079;23;20008;-89
2022/08/10 01:51:29;;;;;;;14.65;10.55;;;;;;;19.55;74.20;99447.38;6176380;23;20011;-89
2022/08/10 01:53:59;;;;;;;13.73;10.27;;;;;;;19.38;74.78;99433.75;6218778;23;20038;-89
2022/08/10 01:56:25;;;;;;;15.35;11.48;;;;;;;19.50;74.95;99452.22;6193833;23;20431;-90
2022/08/10 01:58:58;;;;;;;19.10;10.45;;;;;;;19.44;74.62;99439.84;6168206;23;20092;-90
2022/08/10 02:01:34;;;;;;;12.27;10.07;;;;;;;19.35;74.41;99440.69;6192800;23;20431;-89
2022/08/10 02:04:02;;;;;;;13.90;9.27;;;;;;;19.23;74.08;99439.75;6169993;23;20007;-90
2022/08/10 02:06:28;;;;;;;16.98;10.73;;;;;;;19.17;74.64;99442.66;6220380;23;20079;-89
2022/08/10 02:08:53;;;;;;;17.33;10.50;;;;;;;19.20;74.53;99462.25;6195326;23;20022;-89
2022/08/10 02:11:19;;;;;;;13.43;10.77;;;;;;;19.13;75.68;99455.34;6170416;23;20431;-89
2022/08/10 02:13:44;;;;;;;13.32;9.98;;;;;;;19.09;74.93;99443.50;6170202;23;20011;-89
2022/08/10 02:16:10;;;;;;;14.93;10.18;;;;;;;19.12;74.58;99461.94;6220084;23;20003;-89
2022/08/10 02:18:35;;;;;;;17.67;10.50;;;;;;;19.01;75.76;99446.19;6195256;23;20003;-89
2022/08/10 02:21:04;;;;;;;14.25;9.57;;;;;;;19.04;73.92;99453.75;6170004;23;20389;-89
2022/08/10 02:23:31;;;;;;;11.48;8.65;;;;;;;18.98;74.35;99453.13;6195097;23;20000;-89
2022/08/10 02:25:58;;;;;;;10.68;8.75;;;;;;;18.97;74.38;99449.59;6195205;23;20027;-89
2022/08/10 02:28:25;;;;;;;11.95;8.93;;;;;;;18.92;74.28;99451.69;6170039;23;19999;-90
2022/08/10 02:30:52;;;;;;;13.07;9.65;;;;;;;18.93;75.48;99456.03;6194729;23;20426;-88
2022/08/10 02:33:17;;;;;;;14.15;10.02;;;;;;;18.80;75.11;99460.53;6220005;23;20019;-90
2022/08/10 02:35:43;;;;;;;10.65;8.73;;;;;;;18.85;74.96;99468.53;6169885;23;20386;-89
2022/08/10 02:38:09;;;;;;;17.25;9.52;;;;;;;18.80;74.88;99457.78;6219752;23;20004;-89
2022/08/10 02:40:40;;;;;;;11.60;9.18;;;;;;;18.75;74.72;99453.25;6219996;23;19996;-90
2022/08/10 02:43:05;;;;;;;12.50;10.13;;;;;;;18.85;75.19;99467.75;6195914;23;20050;-89
2022/08/10 02:45:38;;;;;;;11.27;7.90;;;;;;;18.76;75.22;99459.53;6219670;23;20004;-90
2022/08/10 02:48:43;;;;;;;11.43;7.93;;;;;;;18.87;74.40;99482.66;6196632;23;20067;-89
2022/08/10 02:51:29;;;;;;;10.05;7.93;;;;;;;18.78;75.03;99451.81;6203390;23;20015;-90
2022/08/10 02:53:59;;;;;;;12.90;8.43;;;;;;;18.80;74.27;99459.69;6171906;23;20074;-90
2022/08/10 02:56:35;;;;;;;8.50;7.38;;;;;;;18.91;74.30;99472.72;6195298;23;20000;-90
2022/08/10 02:59:10;;;;;;;14.55;8.35;;;;;;;18.99;74.19;99484.75;6170665;23;20027;-90
2022/08/10 03:01:41;;;;;;;15.57;7.68;;;;;;;18.83;73.77;99475.44;6194424;23;20000;-89
2022/08/10 03:04:30;;;;;;;8.90;7.50;;;;;;;18.94;73.80;99484.91;6219807;23;20007;-88
2022/08/10 03:06:59;;;;;;;11.80;7.63;;;;;;;18.97;73.92;99493.25;6219689;23;19992;-89
2022/08/10 03:09:24;;;;;;;11.88;8.30;;;;;;;18.83;73.58;99489.09;6194843;23;20419;-89
2022/08/10 03:11:50;;;;;;;14.85;8.15;;;;;;;18.70;74.28;99477.97;6169608;23;20087;-90
2022/08/10 03:14:15;;;;;;;14.10;8.15;;;;;;;18.64;74.35;99476.53;6194183;23;20075;-89
2022/08/10 03:16:41;;;;;;;12.23;8.32;;;;;;;18.83;75.00;99495.34;6194353;23;20004;-89
2022/08/10 03:19:07;;;;;;;10.95;7.00;;;;;;;18.77;73.97;99483.75;6194364;23;19996;-89
2022/08/10 03:21:32;;;;;;;11.13;7.63;;;;;;;18.82;73.94;99492.91;6169606;23;19996;-90
2022/08/10 03:24:00;;;;;;;11.27;7.53;;;;;;;18.76;74.47;99486.81;6194567;23;19996;-89
2022/08/10 03:26:25;;;;;;;8.40;6.97;;;;;;;18.80;73.61;99493.25;6195337;23;20401;-92
2022/08/10 03:28:51;;;;;;;14.52;7.30;;;;;;;18.86;73.62;99497.41;6195481;23;19997;-91
2022/08/10 03:31:17;;;;;;;11.05;7.40;;;;;;;18.86;73.15;99499.34;6169327;23;20015;-91
2022/08/10 03:33:42;;;;;;;11.13;7.47;;;;;;;18.86;73.96;99502.06;6172387;23;20017;-92
2022/08/10 03:36:08;;;;;;;14.13;7.72;;;;;;;18.94;73.27;99510.25;6166823;23;20000;-91
2022/08/10 03:38:33;;;;;;;10.07;7.53;;;;;;;18.90;73.59;99511.22;6139848;23;20009;-91
2022/08/10 03:41:01;;;;;;;10.40;6.80;;;;;;;18.97;73.16;99514.28;6140050;23;20000;-91
2022/08/10 03:43:26;;;;;;;11.38;7.18;;;;;;;18.98;73.25;99521.34;6164702;23;20154;-91
2022/08/10 03:45:53;;;;;;;12.93;6.60;;;;;;;19.04;73.31;99524.72;6140596;23;20005;-90
2022/08/10 03:48:18;;;;;;;8.52;6.57;;;;;;;19.15;72.18;99535.00;6164405;23;19999;-90
2022/08/10 03:50:50;;;;;;;9.93;6.63;;;;;;;19.17;72.75;99535.47;6164827;23;20016;-91
2022/08/10 03:53:18;;;;;;;8.43;6.63;;;;;;;19.16;73.02;99525.66;6166916;23;20020;-93
2022/08/10 03:55:43;;;;;;;12.30;6.13;;;;;;;19.12;72.17;99523.91;6166767;23;20024;-95
2022/08/10 03:58:09;;;;;;;8.68;6.47;;;;;;;19.13;73.03;99528.22;6141786;23;20083;-94
2022/08/10 04:00:35;;;;;;;13.20;6.72;;;;;;;18.98;73.85;99515.88;6143140;23;20000;-93
2022/08/10 04:03:03;;;;;;;9.02;6.40;;;;;;;18.95;73.52;99517.31;6167372;23;20343;-94
2022/08/10 04:05:29;;;;;;;7.90;5.50;;;;;;;19.06;73.36;99542.38;6142249;23;20004;-94
2022/08/10 04:07:55;;;;;;;13.40;6.20;;;;;;;19.09;73.40;99539.00;6167086;23;20331;-93
2022/08/10 04:10:20;;;;;;;10.40;6.15;;;;;;;18.99;73.01;99547.50;6166780;23;19996;-94
2022/08/10 04:12:46;;;;;;;9.85;5.85;;;;;;;19.18;72.87;99564.38;6142883;23;20075;-94
2022/08/10 04:15:11;;;;;;;11.48;6.47;;;;;;;19.13;72.42;99545.44;6191123;23;19997;-95
2022/08/10 04:17:37;;;;;;;9.18;6.07;;;;;;;19.25;72.75;99549.44;6167172;23;20051;-92
2022/08/10 04:20:40;;;;;;;10.85;6.47;;;;;;;19.49;72.22;99565.31;6143996;23;20300;-94
2022/08/10 04:23:12;;;;;;;11.77;6.32;;;;;;;19.68;71.13;99565.78;6221995;23;20072;-93
2022/08/10 04:25:38;;;;;;;9.98;6.13;;;;;;;19.76;70.74;99556.00;6168288;23;19997;-94
2022/08/10 04:28:09;;;;;;;9.20;5.57;;;;;;;19.77;70.88;99563.03;6157840;23;19997;-96
2022/08/10 04:30:35;;;;;;;12.13;6.53;;;;;;;19.64;70.36;99556.63;6146276;23;20031;-93
2022/08/10 04:33:01;;;;;;;11.25;5.75;;;;;;;19.60;70.24;99555.66;6165346;23;20340;-92
2022/08/10 04:35:27;;;;;;;12.20;5.20;;;;;;;19.74;69.77;99572.69;6166065;23;20419;-92
2022/08/10 04:37:52;;;;;;;8.73;5.63;;;;;;;19.75;69.87;99563.34;6141483;23;20058;-94
2022/08/10 04:40:18;;;;;;;8.52;5.82;;;;;;;19.68;69.57;99534.91;6191725;23;20024;-93
2022/08/10 04:42:45;;;;;;;10.25;5.50;;;;;;;19.74;69.44;99534.44;6165148;23;20003;-93
2022/08/10 04:45:12;;;;;;;10.05;4.25;;;;;;;19.66;70.40;99542.63;6165030;23;20001;-92
2022/08/10 04:47:39;;;;;;;12.07;4.85;;;;;;;19.81;70.52;99565.94;6141498;23;20088;-94
2022/08/10 04:50:05;;;;;;;15.18;5.35;;;;;;;19.99;69.64;99553.81;6168604;23;20004;-95
2022/08/10 04:52:31;;;;;;;12.77;4.82;;;;;;;20.13;69.48;99567.25;6180364;22;19992;-92
2022/08/10 04:54:57;;;;;;;8.05;5.63;;;;;;;19.94;69.57;99554.00;6174779;23;20083;-93
2022/08/10 04:57:23;;;;;;;15.90;5.40;;;;;;;20.11;68.99;99564.88;6193432;23;20058;-95
2022/08/10 04:59:49;;;;;;;13.13;5.57;;;;;;;20.17;68.74;99560.00;6142169;23;20011;-93
2022/08/10 05:02:18;;;;;;;6.78;4.20;;;;;;;20.52;66.02;99562.59;6167436;23;20008;-96
2022/08/10 05:04:43;;;;;;;4.05;2.97;;;;;;;20.79;63.74;99553.94;6192952;23;19996;-94
2022/08/10 05:07:21;;;;;;;5.80;3.22;;;;;;;21.29;62.89;99587.03;6171605;23;19992;-95
2022/08/10 05:10:27;;;;;;;4.05;2.80;;;;;;;21.39;61.53;99573.78;6220123;23;20000;-95
2022/08/10 05:12:53;;;;;;;4.57;3.05;;;;;;;21.80;60.64;99582.25;6193001;23;20000;-95
2022/08/10 05:15:23;;;;;;;3.75;2.67;;;;;;;21.89;59.55;99562.97;6172429;23;20031;-95
2022/08/10 05:17:48;;;;;;;4.93;3.47;;;;;;;21.99;58.79;99562.53;6169620;23;20009;-94
2022/08/10 05:20:14;;;;;;;3.65;3.05;;;;;;;22.30;58.67;99583.97;6191965;23;20474;-93
2022/08/10 05:23:03;;;;;;;4.97;2.30;;;;;;;22.48;57.40;99602.97;6141901;23;20015;-95
2022/08/10 05:25:29;;;;;;;4.35;2.85;;;;;;;22.44;57.46;99577.38;6129990;23;20080;-92
2022/08/10 05:27:55;;;;;;;3.47;2.60;;;;;;;22.45;57.61;99577.00;6055712;23;20084;-93
2022/08/10 05:30:22;;;;;;;3.58;2.70;;;;;;;22.59;57.55;99579.41;6053799;23;20006;-92
2022/08/10 05:32:48;;;;;;;3.08;2.40;;;;;;;22.77;57.23;99580.75;6063056;23;20047;-93
2022/08/10 05:35:14;;;;;;;2.85;2.30;;;;;;;23.00;55.95;99602.25;6130494;23;20029;-93
2022/08/10 05:37:41;;;;;;;5.30;3.38;;;;;;;23.15;56.57;99612.53;6082666;23;20079;-91
2022/08/10 05:40:06;;;;;;;3.22;2.22;;;;;;;23.03;56.16;99598.81;6134607;23;20010;-95
2022/08/10 05:42:32;;;;;;;2.92;2.30;;;;;;;23.07;55.61;99580.50;6139453;23;20479;-95
2022/08/10 05:44:58;;;;;;;4.70;2.88;;;;;;;23.22;56.25;99602.91;6086953;23;20002;-96
2022/08/10 05:47:24;;;;;;;8.07;2.53;;;;;;;23.03;56.23;99598.81;6082749;23;19997;-94
2022/08/10 05:49:49;;;;;;;4.25;2.80;;;;;;;23.13;56.53;99617.56;6082706;23;20016;-93
2022/08/10 05:52:16;;;;;;;2.58;2.10;;;;;;;23.15;56.18;99609.00;6081653;23;20040;-96
2022/08/10 05:54:42;;;;;;;2.90;1.95;;;;;;;23.22;56.13;99603.69;6082802;23;20114;-94
2022/08/10 05:57:08;;;;;;;3.88;2.35;;;;;;;23.17;56.34;99606.69;6154915;23;20009;-94
2022/08/10 05:59:36;;;;;;;2.95;2.25;;;;;;;23.05;56.49;99603.97;6171975;23;20546;-90
2022/08/10 06:02:04;;;;;;;5.72;2.42;;;;;;;23.18;56.62;99611.84;6193389;23;19997;-90
2022/08/10 06:04:36;;;;;;;4.88;2.38;;;;;;;23.29;56.68;99606.66;6168628;23;20031;-90
2022/08/10 06:07:11;;;;;;;4.07;2.50;;;;;;;23.23;56.75;99608.06;6168778;23;19996;-92
2022/08/10 06:09:36;;;;;;;4.18;2.70;;;;;;;23.29;56.58;99603.13;6220810;23;19996;-90
2022/08/10 06:12:09;;;;;;;3.13;2.28;;;;;;;23.29;56.98;99603.91;6195764;23;20007;-92
2022/08/10 06:15:25;;;;;;;2.92;2.40;;;;;;;23.15;57.54;99589.75;6196139;23;20023;-91
2022/08/10 06:18:01;;;;;;;4.32;2.75;;;;;;;23.32;57.50;99627.13;6223877;23;20004;-92
2022/08/10 06:20:27;;;;;;;3.92;2.38;;;;;;;23.33;56.77;99609.53;6197380;23;20000;-93
2022/08/10 06:22:52;;;;;;;2.92;2.17;;;;;;;23.16;57.69;99600.41;6174129;23;20000;-92
2022/08/10 06:25:18;;;;;;;5.25;3.20;;;;;;;23.27;57.80;99614.44;6172105;23;20398;-92
2022/08/10 06:27:46;;;;;;;3.90;2.30;;;;;;;23.08;56.94;99593.09;6195658;23;20049;-95
2022/08/10 06:30:12;;;;;;;4.30;2.30;;;;;;;23.27;56.86;99619.16;6171778;23;20023;-96
2022/08/10 06:32:38;;;;;;;3.95;2.10;;;;;;;23.40;56.06;99623.44;6174365;23;20016;-96
2022/08/10 06:35:39;;;;;;;4.20;2.22;;;;;;;23.34;56.88;99603.66;6170565;23;20036;-96
2022/08/10 06:40:50;;;;;;;3.35;2.60;;;;;;;23.47;55.88;99603.63;6087256;23;20061;-95
2022/08/10 06:43:18;;;;;;;3.80;2.40;;;;;;;23.48;56.15;99616.22;6082313;23;20006;-94
2022/08/10 06:45:55;;;;;;;3.95;2.30;;;;;;;23.35;56.74;99608.03;6133625;23;20029;-96
2022/08/10 06:48:26;;;;;;;3.25;2.65;;;;;;;23.77;55.93;99624.13;6112766;23;19998;-96
2022/08/10 06:50:56;;;;;;;3.58;2.33;;;;;;;23.50;56.22;99609.22;6093598;23;20053;-96
2022/08/10 06:53:48;;;;;;;10.65;2.97;;;;;;;23.57;55.47;99609.44;6092442;23;20073;-94
2022/08/10 06:56:42;;;;;;;4.00;2.90;;;;;;;23.78;55.83;99624.94;6082472;23;20005;-95
2022/08/10 06:59:17;;;;;;;2.80;2.20;;;;;;;23.65;54.74;99598.63;6140509;23;20428;-96
2022/08/10 07:01:46;;;;;;;4.50;2.53;;;;;;;23.78;54.34;99609.25;6119247;23;20054;-95
2022/08/10 07:04:28;;;;;;;3.08;2.17;;;;;;;24.03;54.11;99628.38;6141985;23;20006;-96
2022/08/10 07:07:28;;;;;;;2.88;2.15;;;;;;;23.97;54.46;99636.06;6095479;23;19998;-95
2022/08/10 07:10:18;;;;;;;5.80;3.08;;;;;;;24.05;53.79;99634.31;6233633;22;20032;-96
2022/08/10 07:13:15;;;;;;;;;;;;;;;;;;;;;
2022/08/10 07:15:41;;;;;;;4.15;2.47;;;;;;;23.92;54.47;99628.06;6232166;23;20426;-95
2022/08/10 07:18:15;;;;;;;2.90;1.70;;;;;;;23.84;53.68;99617.22;6199392;23;20008;-95
2022/08/10 07:21:00;;;;;;;3.13;2.05;;;;;;;24.12;52.93;99614.44;6231024;23;20012;-96
2022/08/10 07:23:48;;;;;;;2.42;2.08;;;;;;;23.99;52.83;99617.28;6202658;23;20031;-96
2022/08/10 07:26:26;;;;;;;3.40;2.10;;;;;;;24.30;51.89;99618.47;6186080;23;20354;-96
2022/08/10 07:35:52;;;;;;;2.95;2.00;;;;;;;24.30;52.33;99603.88;6137632;23;20073;-95
2022/08/10 07:38:28;;;;;;;3.28;2.03;;;;;;;24.51;51.38;99611.88;6083474;23;20018;-95
2022/08/10 07:41:20;;;;;;;2.58;1.90;;;;;;;24.44;51.71;99606.97;6064376;23;20002;-95
2022/08/10 07:43:45;;;;;;;;;;;;;;;24.47;51.83;99617.28;6210971;23;20011;-94
2022/08/10 07:46:13;;;;;;;3.28;2.63;;;;;;;24.16;52.23;99593.34;6209168;23;19939;-96
2022/08/10 07:49:06;;;;;;;3.45;2.00;;;;;;;24.40;51.77;99617.09;6177800;23;20035;-94
2022/08/10 07:51:34;;;;;;;3.47;2.33;;;;;;;24.04;52.74;99593.41;6144947;23;20061;-93
2022/08/10 07:54:14;;;;;;;2.60;2.15;;;;;;;24.25;52.17;99615.94;6144846;23;20017;-96
2022/08/10 07:56:43;;;;;;;2.72;2.22;;;;;;;24.15;52.24;99616.47;6128673;23;20006;-94
2022/08/10 07:59:16;;;;;;;2.25;2.05;;;;;;;24.25;51.90;99602.19;6160591;22;20024;-95
2022/08/10 08:02:20;;;;;;;3.83;3.17;;;;;;;24.37;51.69;99610.38;6215147;23;20004;-95
2022/08/10 08:07:26;;;;;;;5.28;2.97;;;;;;;24.60;51.27;99602.28;6259988;22;20020;-95
2022/08/10 08:09:54;;;;;;;3.65;3.25;;;;;;;24.55;51.57;99599.81;6221412;22;20015;-96
2022/08/10 08:12:19;;;;;;;4.53;2.75;;;;;;;24.53;51.53;99604.06;6214737;22;20011;-96
2022/08/10 08:17:23;;;;;;;4.30;2.90;;;;;;;24.89;50.09;99602.16;6182534;22;20035;-95
2022/08/10 08:20:09;;;;;;;3.25;2.30;;;;;;;24.94;49.93;99615.66;6193074;22;20057;-94
2022/08/10 08:22:40;;;;;;;3.72;2.83;;;;;;;25.06;50.12;99611.97;6245830;22;20019;-94
2022/08/10 08:25:28;;;;;;;4.53;3.00;;;;;;;25.26;48.97;99610.88;6217716;22;20056;-95
2022/08/10 08:27:55;;;;;;;3.30;2.60;;;;;;;25.49;47.67;99594.41;6180260;23;20001;-93
2022/08/10 08:30:21;;;;;;;8.55;3.45;;;;;;;25.52;48.36;99598.38;6143703;23;20001;-93
2022/08/10 08:32:50;;;;;;;3.50;2.70;;;;;;;25.80;47.31;99593.44;6172415;23;20001;-94
2022/08/10 08:35:19;;;;;;;3.47;2.80;;;;;;;25.68;47.94;99603.84;6186789;23;20029;-94
2022/08/10 08:37:46;;;;;;;4.63;3.17;;;;;;;25.78;47.93;99604.03;6161408;23;20009;-93
2022/08/10 08:40:32;;;;;;;4.70;3.00;;;;;;;25.91;47.38;99593.66;6136554;23;20444;-94
2022/08/10 08:43:41;;;;;;;2.70;2.28;;;;;;;26.06;47.25;99608.50;6163251;23;20475;-95
2022/08/10 08:46:33;;;;;;;4.68;2.60;;;;;;;25.80;46.61;99576.09;6186231;23;20024;-93
2022/08/10 08:49:06;;;;;;;;;;;;;;;25.87;46.79;99601.03;6162358;23;20001;-93
2022/08/10 08:52:12;;;;;;;23.52;18.08;;;;;;;25.84;46.25;99600.97;6144613;23;19900;-96
2022/08/10 08:55:31;;;;;;;7.18;3.75;;;;;;;25.51;47.60;99574.75;6195904;23;20000;-95
2022/08/10 08:58:22;;;;;;;5.97;3.67;;;;;;;25.34;47.48;99571.28;6189145;22;20007;-95
2022/08/10 09:01:24;;;;;;;4.20;2.90;;;;;;;25.50;48.10;99593.22;6251098;22;20054;-94
2022/08/10 09:04:02;;;;;;;;;;;;;;;25.54;47.21;99594.09;6156674;22;20011;-91
2022/08/10 09:07:06;;;;;;;4.20;2.70;;;;;;;25.59;47.31;99591.06;6249763;22;19911;-92
2022/08/10 09:09:37;;;;;;;3.75;2.53;;;;;;;25.68;47.00;99585.31;6256110;22;20057;-95
2022/08/10 09:12:06;;;;;;;;;;;;;;;25.99;47.22;99584.34;6257809;22;20003;-95
2022/08/10 09:14:47;;;;;;;4.97;2.30;;;;;;;25.83;46.37;99558.00;6262230;22;19903;-96
2022/08/10 09:17:47;;;;;;;7.38;3.33;;;;;;;25.88;46.71;99547.47;6233195;22;20015;-94
2022/08/10 09:21:06;;;;;;;4.95;3.25;;;;;;;25.96;46.53;99576.00;6224482;22;20000;-91
2022/08/10 09:34:04;;;;;;;8.70;4.32;;;;;;;26.08;46.86;99569.50;6283857;22;20077;-95
2022/08/10 09:37:05;;;;;;;2.75;2.47;;;;;;;26.32;45.76;99573.84;6229805;22;20464;-95
2022/08/10 09:39:54;;;;;;;5.63;3.30;;;;;;;26.47;44.69;99574.88;6255984;22;19999;-92
2022/08/10 09:42:27;;;;;;;5.20;3.00;;;;;;;26.13;44.81;99555.41;6233356;22;20021;-96
2022/08/10 09:45:02;;;;;;;3.42;2.60;;;;;;;26.22;44.62;99558.69;6233891;22;19995;-90
2022/08/10 09:48:03;;;;;;;3.78;3.08;;;;;;;26.23;44.49;99562.25;6227496;22;20150;-92
2022/08/10 09:51:03;;;;;;;3.97;3.08;;;;;;;26.43;44.07;99572.03;6249411;22;20014;-92
2022/08/10 09:54:06;;;;;;;4.18;3.05;;;;;;;26.54;44.41;99569.44;6245656;22;20083;-90
2022/08/10 09:56:50;;;;;;;5.22;2.78;;;;;;;26.40;44.19;99559.78;6222765;22;20168;-91
2022/08/10 09:59:33;;;;;;;3.60;2.88;;;;;;;26.47;44.55;99566.59;6225527;22;20000;-92
2022/08/10 10:02:08;;;;;;;4.43;2.83;;;;;;;26.54;44.39;99542.66;6200745;22;20031;-93
2022/08/10 10:04:47;;;;;;;4.88;3.38;;;;;;;26.73;43.59;99544.53;6200813;22;20134;-93
2022/08/10 10:07:23;;;;;;;3.83;3.20;;;;;;;26.99;43.36;99551.16;6249689;22;20468;-94
2022/08/10 10:10:12;;;;;;;4.60;3.42;;;;;;;26.77;43.64;99548.13;6208307;22;20034;-95
2022/08/10 10:13:07;;;;;;;3.28;2.60;;;;;;;27.05;43.69;99562.69;6221809;22;20008;-96
2022/08/10 10:16:19;;;;;;;4.55;2.70;;;;;;;26.97;42.65;99537.72;6239415;22;19996;-96
2022/08/10 10:18:56;;;;;;;3.58;2.60;;;;;;;26.93;43.88;99561.75;6215533;23;20115;-96
2022/08/10 10:21:48;;;;;;;3.85;2.85;;;;;;;26.85;43.22;99556.50;6217161;23;20066;-96
2022/08/10 10:24:39;;;;;;;6.30;4.40;;;;;;;27.19;43.08;99560.91;6221311;22;19991;-96
2022/08/10 10:27:31;;;;;;;3.78;2.72;;;;;;;27.21;42.77;99566.84;6271521;22;20338;-96
2022/08/10 10:30:20;;;;;;;4.85;3.10;;;;;;;27.38;42.76;99540.63;6247788;22;20060;-95
2022/08/10 10:33:26;;;;;;;3.47;3.13;;;;;;;27.22;42.31;99537.22;6224928;22;20004;-96
2022/08/10 10:35:55;;;;;;;10.52;7.30;;;;;;;27.14;43.42;99535.56;6189709;23;20052;-97
2022/08/10 10:44:44;;;;;;;4.53;2.80;;;;;;;27.72;41.03;99535.03;6261554;22;20031;-95
2022/08/10 10:47:20;;;;;;;3.75;2.63;;;;;;;27.61;40.68;99523.88;6214903;22;20018;-96
2022/08/10 10:50:36;;;;;;;4.50;2.47;;;;;;;27.71;40.88;99541.75;6244805;22;20165;-96
2022/08/10 10:53:20;;;;;;;3.92;2.95;;;;;;;27.67;41.37;99532.63;6110755;23;20005;-95
2022/08/10 10:56:10;;;;;;;4.03;2.80;;;;;;;27.87;40.79;99530.47;6130285;23;20103;-94
2022/08/10 10:59:14;;;;;;;4.43;2.90;;;;;;;27.70;40.93;99537.38;6090559;23;20013;-95
2022/08/10 11:02:03;;;;;;;3.85;2.08;;;;;;;27.82;40.24;99533.56;6225417;22;20003;-96
2022/08/10 11:04:53;;;;;;;3.28;2.30;;;;;;;27.78;40.96;99532.72;6263298;22;20307;-96
2022/08/10 11:07:34;;;;;;;2.83;2.30;;;;;;;27.57;40.29;99514.72;6262847;22;20038;-95
2022/08/10 11:10:17;;;;;;;6.32;3.03;;;;;;;27.52;41.46;99506.78;6209158;22;20000;-94
2022/08/10 11:12:52;;;;;;;2.72;2.13;;;;;;;27.55;40.59;99491.41;6235479;22;20000;-93
2022/08/10 11:15:29;;;;;;;5.55;2.88;;;;;;;27.76;39.97;99524.00;6204481;22;19995;-96
2022/08/10 11:18:12;;;;;;;8.70;6.95;;;;;;;27.89;39.44;99497.69;6256663;22;20078;-95
2022/08/10 11:20:45;;;;;;;3.65;2.58;;;;;;;27.82;39.61;99486.50;6216010;22;20438;-96
2022/08/10 11:23:49;;;;;;;32.15;28.27;;;;;;;28.17;39.55;99499.06;6218929;22;19988;-95
2022/08/10 11:26:48;;;;;;;3.15;2.45;;;;;;;28.11;38.85;99476.47;6244831;22;20007;-95
2022/08/10 11:32:35;;;;;;;3.03;2.13;;;;;;;28.42;38.46;99497.25;6283488;22;20008;-96
2022/08/10 11:42:08;;;;;;;6.20;3.70;;;;;;;28.41;38.11;99478.28;6122102;23;20029;-96
2022/08/10 11:45:02;;;;;;;3.47;2.33;;;;;;;28.55;38.30;99456.19;6061339;23;20079;-96
2022/08/10 11:48:22;;;;;;;5.95;2.30;;;;;;;28.67;38.49;99480.00;6034741;23;20009;-95
2022/08/10 11:51:11;;;;;;;2.95;2.38;;;;;;;28.45;38.89;99454.13;6085646;22;20023;-96
2022/08/10 11:54:05;;;;;;;3.45;1.88;;;;;;;28.65;37.11;99451.91;6234130;22;20019;-93
2022/08/10 11:56:38;;;;;;;5.63;2.40;;;;;;;28.40;37.78;99433.16;6222894;22;19999;-93
2022/08/10 12:01:51;;;;;;;3.42;2.22;;;;;;;28.97;38.05;99443.72;6247722;22;20016;-93
2022/08/10 12:04:20;;;;;;;3.50;2.30;;;;;;;29.01;37.05;99450.06;6208209;22;20003;-95
2022/08/10 12:06:45;;;;;;;2.72;2.30;;;;;;;28.69;36.85;99429.75;6198947;22;19996;-95
2022/08/10 12:37:01;;;;;;;4.38;2.20;;;;;;;29.19;34.87;99413.28;6243728;22;20023;-94
2022/08/10 12:39:30;;;;;;;3.17;2.25;;;;;;;28.90;34.81;99396.56;6177019;23;20349;-95
2022/08/10 12:42:09;;;;;;;2.72;2.10;;;;;;;29.04;34.75;99420.75;6123477;23;20008;-96
2022/08/10 12:44:52;;;;;;;3.22;2.25;;;;;;;28.95;34.78;99401.75;6173965;22;20007;-95
2022/08/10 12:47:27;;;;;;;2.80;2.15;;;;;;;28.92;34.96;99408.06;6169790;22;20112;-90
2022/08/10 12:49:58;;;;;;;3.33;2.08;;;;;;;28.78;34.30;99411.59;6220400;23;20527;-92
2022/08/10 12:52:49;;;;;;;4.05;2.00;;;;;;;28.80;34.52;99420.31;6195382;23;20000;-89
2022/08/10 12:55:18;;;;;;;5.95;2.20;;;;;;;28.71;34.53;99386.63;6157994;23;20000;-93
2022/08/10 12:57:52;;;;;;;3.28;2.10;;;;;;;28.71;34.25;99391.38;6187549;23;20394;-93
2022/08/10 13:00:52;;;;;;;3.60;2.70;;;;;;;28.80;34.53;99397.31;6196347;23;20011;-91
2022/08/10 13:03:22;;;;;;;3.25;2.28;;;;;;;28.74;34.77;99396.94;6224003;23;20008;-94
2022/08/10 13:05:50;;;;;;;3.33;2.20;;;;;;;28.56;34.87;99391.31;6195535;23;20461;-93
2022/08/10 13:11:03;;;;;;;3.50;2.10;;;;;;;28.36;34.61;99398.31;6203567;23;20500;-93
2022/08/10 13:13:36;;;;;;;4.75;2.20;;;;;;;28.48;34.55;99395.19;6196185;23;20390;-93
2022/08/10 13:16:06;;;;;;;2.30;1.88;;;;;;;28.46;34.94;99396.78;6195200;23;20103;-92
2022/08/10 13:18:42;;;;;;;6.70;2.38;;;;;;;28.47;34.94;99385.28;6171360;23;20031;-92
2022/08/10 13:21:09;;;;;;;4.40;2.00;;;;;;;28.81;34.39;99383.09;6170638;23;20083;-92
2022/08/10 13:24:17;;;;;;;7.03;2.22;;;;;;;28.89;34.00;99367.28;6169242;23;20059;-93
2022/08/10 13:26:55;;;;;;;5.75;2.90;;;;;;;29.01;33.76;99378.00;6113334;23;20072;-95